createdAt,value
2022-07-31T00:00:42.924Z,2.89
2022-07-31T00:01:46.249Z,3.42
2022-07-31T00:02:50.033Z,3.16
2022-07-31T00:03:54.124Z,3.68
2022-07-31T00:04:57.622Z,3.45
2022-07-31T00:06:01.171Z,3.39
2022-07-31T00:07:05.815Z,2.81
2022-07-31T00:08:11.365Z,3.01
2022-07-31T00:09:51.633Z,2.98
2022-07-31T00:10:20.569Z,2.64
2022-07-31T00:11:24.441Z,2.87
2022-07-31T00:12:29.303Z,3.06
2022-07-31T00:13:57.767Z,3.11
2022-07-31T00:14:38.339Z,2.76
2022-07-31T00:15:40.777Z,3.13
2022-07-31T00:16:44.485Z,3.32
2022-07-31T00:17:48.568Z,3.02
2022-07-31T00:18:51.876Z,2.98
2022-07-31T00:19:55.618Z,3.07
2022-07-31T00:21:06.051Z,3.02
2022-07-31T00:22:10.857Z,2.85
2022-07-31T00:23:13.710Z,2.69
2022-07-31T00:24:20.701Z,3.17
2022-07-31T00:25:24.632Z,2.72
2022-07-31T00:26:31.198Z,2.93
2022-07-31T00:27:35.047Z,2.88
2022-07-31T00:28:38.429Z,2.66
2022-07-31T00:29:43.198Z,2.90
2022-07-31T00:30:48.056Z,2.54
2022-07-31T00:31:51.820Z,2.71
2022-07-31T00:33:00.151Z,2.92
2022-07-31T00:34:09.702Z,3.01
2022-07-31T00:35:17.750Z,2.51
2022-07-31T00:36:21.529Z,3.22
2022-07-31T00:37:27.893Z,3.03
2022-07-31T00:38:34.684Z,3.01
2022-07-31T00:39:39.126Z,2.72
2022-07-31T00:40:54.074Z,2.95
2022-07-31T00:42:00.073Z,2.94
2022-07-31T00:43:05.458Z,2.76
2022-07-31T00:44:12.509Z,2.92
2022-07-31T00:45:15.678Z,2.95
2022-07-31T00:46:23.192Z,2.78
2022-07-31T00:48:43.371Z,2.89
2022-07-31T00:49:47.543Z,2.76
2022-07-31T00:50:51.880Z,2.82
2022-07-31T00:51:56.049Z,2.93
2022-07-31T00:52:59.830Z,2.96
2022-07-31T00:54:04.380Z,2.98
2022-07-31T00:55:12.118Z,2.75
2022-07-31T00:56:16.331Z,2.87
2022-07-31T00:57:19.904Z,2.99
2022-07-31T00:58:23.235Z,2.88
2022-07-31T00:59:29.503Z,2.42
2022-07-31T01:00:36.226Z,2.68
2022-07-31T01:01:39.917Z,2.62
2022-07-31T01:02:46.670Z,2.58
2022-07-31T01:03:49.821Z,2.75
2022-07-31T01:04:53.565Z,2.48
2022-07-31T01:05:56.932Z,2.62
2022-07-31T01:07:03.740Z,2.77
2022-07-31T01:08:07.905Z,2.67
2022-07-31T01:09:15.517Z,2.58
2022-07-31T01:10:38.879Z,2.95
2022-07-31T01:11:52.173Z,2.70
2022-07-31T01:13:02.976Z,2.59
2022-07-31T01:14:07.905Z,2.63
2022-07-31T01:15:14.497Z,2.63
2022-07-31T01:16:19.653Z,2.68
2022-07-31T01:17:25.684Z,2.50
2022-07-31T01:18:34.454Z,2.53
2022-07-31T01:19:43.691Z,2.87
2022-07-31T01:20:58.902Z,2.76
2022-07-31T01:22:33.321Z,2.86
2022-07-31T01:24:08.259Z,2.89
2022-07-31T01:26:06.293Z,2.99
2022-07-31T01:27:19.602Z,3.01
2022-07-31T01:28:45.212Z,2.36
2022-07-31T01:29:56.202Z,2.52
2022-07-31T01:31:25.993Z,2.70
2022-07-31T01:32:20.953Z,2.51
2022-07-31T01:33:33.104Z,2.52
2022-07-31T01:34:57.359Z,2.41
2022-07-31T01:36:06.977Z,2.94
2022-07-31T01:37:20.347Z,2.45
2022-07-31T01:38:34.735Z,2.53
2022-07-31T01:39:42.081Z,2.58
2022-07-31T01:40:48.830Z,2.73
2022-07-31T01:41:58.326Z,2.95
2022-07-31T01:43:05.384Z,2.57
2022-07-31T01:44:14.088Z,2.68
2022-07-31T01:45:22.113Z,2.78
2022-07-31T01:46:29.955Z,2.24
2022-07-31T01:47:35.298Z,2.44
2022-07-31T01:48:41.100Z,2.32
2022-07-31T01:49:47.582Z,2.57
2022-07-31T01:50:53.528Z,2.58
2022-07-31T01:52:08.054Z,2.46
2022-07-31T01:53:16.975Z,2.77
2022-07-31T01:54:23.350Z,2.73
2022-07-31T01:55:31.207Z,2.48
2022-07-31T01:56:38.858Z,2.55
2022-07-31T01:57:45.661Z,2.48
2022-07-31T01:58:50.923Z,2.87
2022-07-31T02:00:00.705Z,2.67
2022-07-31T02:01:12.108Z,2.86
2022-07-31T02:03:43.750Z,2.58
2022-07-31T02:04:33.096Z,3.07
2022-07-31T02:05:42.220Z,2.80
2022-07-31T02:06:49.667Z,2.89
2022-07-31T02:07:54.542Z,2.84
2022-07-31T02:09:00.501Z,2.77
2022-07-31T02:10:14.053Z,2.74
2022-07-31T02:11:21.235Z,2.97
2022-07-31T02:12:32.250Z,3.12
2022-07-31T02:13:35.765Z,2.68
2022-07-31T02:14:43.118Z,3.28
2022-07-31T02:15:49.297Z,2.90
2022-07-31T02:16:54.672Z,2.99
2022-07-31T02:18:01.725Z,2.87
2022-07-31T02:19:14.532Z,2.71
2022-07-31T02:20:19.784Z,2.93
2022-07-31T02:21:27.118Z,2.74
2022-07-31T02:22:31.040Z,3.11
2022-07-31T02:23:36.184Z,2.92
2022-07-31T02:24:45.385Z,2.96
2022-07-31T02:25:49.377Z,2.94
2022-07-31T02:26:53.328Z,2.66
2022-07-31T02:28:02.113Z,2.56
2022-07-31T02:29:19.548Z,3.07
2022-07-31T02:30:17.934Z,3.10
2022-07-31T02:31:23.995Z,2.83
2022-07-31T02:32:29.349Z,2.80
2022-07-31T02:33:33.185Z,2.68
2022-07-31T02:34:37.942Z,2.79
2022-07-31T02:35:46.143Z,2.68
2022-07-31T02:36:54.835Z,2.80
2022-07-31T02:38:03.166Z,2.77
2022-07-31T02:39:09.459Z,2.78
2022-07-31T02:40:15.552Z,2.57
2022-07-31T02:41:21.950Z,2.77
2022-07-31T02:42:25.840Z,2.79
2022-07-31T02:43:32.815Z,2.55
2022-07-31T02:44:38.827Z,2.69
2022-07-31T02:45:44.422Z,2.58
2022-07-31T02:46:49.530Z,2.85
2022-07-31T02:47:53.871Z,2.70
2022-07-31T02:48:59.655Z,2.97
2022-07-31T02:50:05.970Z,2.82
2022-07-31T02:51:10.376Z,3.09
2022-07-31T02:52:17.559Z,3.12
2022-07-31T02:53:22.211Z,3.04
2022-07-31T02:54:31.103Z,2.72
2022-07-31T02:55:36.637Z,2.98
2022-07-31T02:56:42.006Z,3.00
2022-07-31T02:57:52.318Z,2.87
2022-07-31T02:58:56.628Z,3.00
2022-07-31T03:00:18.487Z,2.66
2022-07-31T03:01:22.469Z,3.41
2022-07-31T03:02:34.484Z,2.96
2022-07-31T03:03:36.418Z,2.87
2022-07-31T03:04:40.341Z,2.79
2022-07-31T03:05:45.713Z,2.96
2022-07-31T03:06:53.341Z,3.19
2022-07-31T03:08:02.276Z,2.77
2022-07-31T03:09:10.899Z,2.92
2022-07-31T03:10:15.732Z,2.55
2022-07-31T03:11:21.948Z,2.79
2022-07-31T03:12:26.350Z,2.89
2022-07-31T03:13:34.024Z,2.85
2022-07-31T03:14:40.541Z,2.61
2022-07-31T03:15:51.003Z,2.66
2022-07-31T03:16:54.689Z,2.93
2022-07-31T03:17:59.589Z,2.93
2022-07-31T03:19:13.146Z,2.95
2022-07-31T03:20:18.974Z,2.81
2022-07-31T03:21:24.965Z,2.33
2022-07-31T03:22:32.334Z,2.81
2022-07-31T03:23:40.667Z,2.88
2022-07-31T03:24:46.307Z,2.76
2022-07-31T03:25:54.569Z,2.92
2022-07-31T03:26:59.963Z,2.73
2022-07-31T03:28:03.610Z,2.82
2022-07-31T03:29:39.099Z,2.62
2022-07-31T03:31:32.711Z,2.62
2022-07-31T03:32:36.988Z,2.48
2022-07-31T03:33:41.733Z,2.81
2022-07-31T03:34:45.424Z,2.44
2022-07-31T03:35:51.389Z,2.64
2022-07-31T03:36:56.091Z,2.76
2022-07-31T03:38:00.672Z,2.52
2022-07-31T03:39:05.859Z,2.76
2022-07-31T03:40:12.384Z,2.56
2022-07-31T03:41:16.581Z,2.66
2022-07-31T03:42:20.823Z,2.72
2022-07-31T03:43:26.634Z,2.41
2022-07-31T03:44:41.150Z,2.37
2022-07-31T03:45:46.302Z,2.29
2022-07-31T03:46:51.120Z,2.66
2022-07-31T03:47:56.814Z,2.37
2022-07-31T03:49:01.257Z,2.52
2022-07-31T03:50:09.117Z,2.44
2022-07-31T03:51:13.158Z,2.45
2022-07-31T03:52:16.386Z,2.40
2022-07-31T03:53:23.376Z,2.25
2022-07-31T03:54:28.344Z,2.42
2022-07-31T03:55:52.280Z,2.41
2022-07-31T03:57:01.363Z,2.39
2022-07-31T03:58:07.194Z,2.41
2022-07-31T03:59:10.821Z,2.37
2022-07-31T04:00:17.937Z,2.41
2022-07-31T04:01:22.491Z,2.34
2022-07-31T04:02:28.075Z,2.51
2022-07-31T04:03:40.432Z,2.57
2022-07-31T04:04:56.501Z,2.45
2022-07-31T04:05:59.229Z,2.29
2022-07-31T04:07:07.500Z,2.25
2022-07-31T04:08:09.942Z,2.53
2022-07-31T04:09:18.616Z,2.26
2022-07-31T04:10:25.133Z,2.47
2022-07-31T04:11:30.269Z,2.41
2022-07-31T04:12:39.022Z,2.22
2022-07-31T04:13:43.340Z,2.12
2022-07-31T04:14:48.395Z,2.41
2022-07-31T04:15:52.456Z,2.11
2022-07-31T04:16:57.995Z,2.07
2022-07-31T04:18:08.924Z,2.22
2022-07-31T04:19:14.555Z,2.35
2022-07-31T04:20:28.915Z,2.11
2022-07-31T04:21:34.305Z,2.02
2022-07-31T04:22:38.502Z,2.17
2022-07-31T04:23:49.479Z,2.31
2022-07-31T04:24:56.336Z,2.08
2022-07-31T04:26:05.156Z,1.99
2022-07-31T04:27:22.211Z,2.12
2022-07-31T04:28:27.105Z,2.20
2022-07-31T04:29:32.048Z,2.44
2022-07-31T04:30:36.390Z,1.97
2022-07-31T04:31:39.012Z,2.19
2022-07-31T04:32:46.665Z,1.87
2022-07-31T04:33:56.580Z,1.93
2022-07-31T04:34:59.458Z,2.00
2022-07-31T04:36:03.377Z,2.02
2022-07-31T04:37:06.067Z,2.01
2022-07-31T04:38:12.540Z,2.08
2022-07-31T04:39:16.504Z,1.87
2022-07-31T04:40:22.838Z,2.08
2022-07-31T04:41:29.797Z,1.91
2022-07-31T04:42:33.974Z,1.98
2022-07-31T04:43:38.993Z,1.87
2022-07-31T04:44:43.055Z,1.72
2022-07-31T04:45:46.731Z,1.91
2022-07-31T04:46:52.424Z,1.69
2022-07-31T04:47:56.140Z,1.81
2022-07-31T04:49:02.720Z,2.01
2022-07-31T04:50:13.073Z,1.98
2022-07-31T04:51:24.276Z,1.98
2022-07-31T04:52:29.334Z,1.96
2022-07-31T04:53:38.882Z,1.67
2022-07-31T04:54:46.489Z,1.76
2022-07-31T04:56:09.802Z,1.80
2022-07-31T04:57:18.469Z,1.72
2022-07-31T04:58:19.839Z,2.12
2022-07-31T04:59:24.423Z,1.64
2022-07-31T05:00:33.814Z,1.78
2022-07-31T05:01:37.564Z,1.65
2022-07-31T05:02:41.795Z,1.72
2022-07-31T05:03:50.664Z,2.03
2022-07-31T05:04:57.175Z,1.59
2022-07-31T05:06:12.866Z,1.63
2022-07-31T05:07:17.823Z,1.73
2022-07-31T05:08:21.696Z,1.91
2022-07-31T05:09:25.706Z,1.54
2022-07-31T05:10:53.360Z,1.77
2022-07-31T05:12:06.896Z,1.71
2022-07-31T05:13:12.041Z,1.75
2022-07-31T05:14:17.628Z,1.70
2022-07-31T05:15:20.165Z,1.63
2022-07-31T05:16:28.303Z,1.98
2022-07-31T05:17:34.901Z,1.72
2022-07-31T05:18:59.821Z,1.66
2022-07-31T05:20:24.878Z,1.61
2022-07-31T05:21:53.314Z,1.74
2022-07-31T05:23:01.617Z,1.72
2022-07-31T05:24:12.225Z,1.82
2022-07-31T05:25:30.595Z,1.51
2022-07-31T05:26:35.321Z,1.57
2022-07-31T05:27:39.256Z,1.62
2022-07-31T05:28:46.666Z,1.66
2022-07-31T05:29:51.575Z,1.57
2022-07-31T05:30:55.664Z,1.66
2022-07-31T05:32:01.249Z,1.68
2022-07-31T05:33:06.748Z,1.66
2022-07-31T05:34:09.985Z,1.66
2022-07-31T05:35:14.741Z,1.81
2022-07-31T06:02:24.306Z,1.70
2022-07-31T06:03:34.703Z,1.40
2022-07-31T06:04:39.094Z,1.41
2022-07-31T06:05:44.073Z,1.37
2022-07-31T06:06:49.088Z,1.36
2022-07-31T06:07:52.952Z,1.50
2022-07-31T06:09:03.392Z,1.48
2022-07-31T06:10:03.616Z,1.54
2022-07-31T06:11:08.851Z,1.69
2022-07-31T06:12:13.138Z,1.50
2022-07-31T06:13:16.885Z,1.31
2022-07-31T06:14:20.682Z,1.24
2022-07-31T06:15:26.262Z,1.53
2022-07-31T06:16:30.075Z,1.58
2022-07-31T06:17:43.715Z,1.53
2022-07-31T06:18:39.389Z,1.38
2022-07-31T06:19:42.820Z,1.33
2022-07-31T06:20:47.684Z,1.29
2022-07-31T06:21:50.838Z,1.33
2022-07-31T06:22:56.817Z,1.41
2022-07-31T06:24:02.899Z,1.57
2022-07-31T06:25:12.771Z,1.54
2022-07-31T06:26:21.607Z,1.29
2022-07-31T06:27:33.930Z,1.37
2022-07-31T06:28:49.311Z,1.29
2022-07-31T06:29:50.818Z,1.69
2022-07-31T06:30:58.393Z,1.37
2022-07-31T06:32:02.056Z,1.62
2022-07-31T06:33:08.100Z,1.24
2022-07-31T06:34:18.325Z,1.49
2022-07-31T06:35:20.143Z,1.54
2022-07-31T06:37:45.450Z,1.64
2022-07-31T06:38:48.964Z,1.53
2022-07-31T06:39:59.401Z,1.25
2022-07-31T06:41:42.246Z,1.34
2022-07-31T06:43:06.963Z,1.50
2022-07-31T06:44:12.382Z,1.47
2022-07-31T06:45:50.912Z,1.42
2022-07-31T06:46:48.990Z,1.51
2022-07-31T06:48:06.234Z,1.46
2022-07-31T06:49:18.075Z,1.46
2022-07-31T06:50:22.461Z,1.37
2022-07-31T06:51:32.108Z,1.59
2022-07-31T06:52:36.550Z,1.24
2022-07-31T06:53:40.376Z,1.65
2022-07-31T06:54:43.621Z,1.51
2022-07-31T06:55:48.878Z,1.60
2022-07-31T06:58:06.461Z,1.52
2022-07-31T06:59:12.778Z,1.41
2022-07-31T07:00:20.524Z,1.62
2022-07-31T07:01:24.612Z,1.31
2022-07-31T07:02:36.672Z,1.49
2022-07-31T07:03:42.412Z,1.37
2022-07-31T07:04:57.433Z,1.31
2022-07-31T07:05:54.018Z,1.52
2022-07-31T07:06:56.673Z,1.21
2022-07-31T07:08:03.466Z,1.21
2022-07-31T07:09:11.388Z,1.56
2022-07-31T07:10:17.154Z,1.46
2022-07-31T07:11:40.803Z,1.58
2022-07-31T07:12:47.764Z,1.27
2022-07-31T07:13:51.286Z,1.31
2022-07-31T07:14:55.503Z,1.27
2022-07-31T07:15:59.826Z,1.16
2022-07-31T07:17:05.323Z,1.04
2022-07-31T07:18:09.335Z,1.36
2022-07-31T07:19:15.075Z,1.44
2022-07-31T07:20:21.434Z,1.41
2022-07-31T07:21:26.953Z,1.45
2022-07-31T07:22:32.279Z,1.61
2022-07-31T07:23:37.873Z,1.38
2022-07-31T07:25:01.691Z,1.37
2022-07-31T07:26:07.122Z,1.26
2022-07-31T07:27:30.542Z,1.29
2022-07-31T07:28:35.358Z,1.19
2022-07-31T07:29:38.357Z,1.30
2022-07-31T07:30:42.516Z,1.21
2022-07-31T07:31:50.342Z,1.17
2022-07-31T07:32:52.865Z,1.30
2022-07-31T07:33:56.223Z,1.28
2022-07-31T07:35:03.208Z,1.26
2022-07-31T07:36:25.560Z,1.37
2022-07-31T07:37:32.375Z,1.34
2022-07-31T07:38:36.795Z,1.47
2022-07-31T07:39:40.431Z,1.25
2022-07-31T07:40:44.944Z,1.26
2022-07-31T07:41:50.109Z,1.04
2022-07-31T07:42:54.290Z,1.19
2022-07-31T07:43:58.269Z,1.34
2022-07-31T07:45:07.954Z,1.22
2022-07-31T07:46:15.616Z,1.31
2022-07-31T07:47:20.522Z,1.36
2022-07-31T07:48:26.381Z,1.43
2022-07-31T07:49:32.662Z,1.27
2022-07-31T07:52:09.710Z,1.42
2022-07-31T07:53:16.283Z,1.49
2022-07-31T07:54:38.377Z,1.34
2022-07-31T07:55:43.828Z,1.29
2022-07-31T07:57:04.999Z,1.39
2022-07-31T07:58:27.057Z,1.47
2022-07-31T07:59:35.220Z,1.43
2022-07-31T08:00:46.579Z,1.33
2022-07-31T08:01:55.144Z,1.35
2022-07-31T08:03:02.908Z,1.36
2022-07-31T08:04:08.354Z,1.14
2022-07-31T08:05:12.838Z,1.22
2022-07-31T08:06:15.883Z,1.22
2022-07-31T08:07:41.872Z,1.12
2022-07-31T08:08:43.300Z,1.11
2022-07-31T08:09:48.555Z,1.10
2022-07-31T08:11:04.843Z,1.42
2022-07-31T08:12:12.816Z,1.43
2022-07-31T08:13:18.272Z,1.15
2022-07-31T08:14:42.691Z,1.21
2022-07-31T08:16:06.999Z,1.16
2022-07-31T08:17:15.145Z,1.11
2022-07-31T08:18:19.642Z,1.20
2022-07-31T08:19:22.939Z,1.30
2022-07-31T08:20:26.725Z,1.21
2022-07-31T08:21:32.163Z,1.16
2022-07-31T08:22:37.715Z,1.38
2022-07-31T08:23:42.534Z,1.26
2022-07-31T08:24:46.627Z,1.21
2022-07-31T08:25:51.347Z,1.21
2022-07-31T08:27:13.556Z,1.23
2022-07-31T08:28:23.946Z,1.24
2022-07-31T08:29:27.275Z,1.20
2022-07-31T08:30:33.594Z,1.27
2022-07-31T08:31:37.392Z,1.36
2022-07-31T08:32:57.875Z,1.36
2022-07-31T08:34:04.227Z,1.22
2022-07-31T08:35:12.631Z,1.32
2022-07-31T08:36:16.446Z,1.14
2022-07-31T08:37:57.613Z,1.19
2022-07-31T08:38:29.791Z,1.21
2022-07-31T08:39:37.240Z,1.18
2022-07-31T08:40:43.801Z,1.19
2022-07-31T08:41:56.622Z,1.20
2022-07-31T08:43:01.151Z,1.31
2022-07-31T08:44:09.864Z,1.16
2022-07-31T08:45:15.050Z,1.32
2022-07-31T08:46:22.494Z,1.20
2022-07-31T08:47:28.778Z,1.24
2022-07-31T08:48:39.779Z,1.18
2022-07-31T08:49:49.621Z,1.19
2022-07-31T08:50:55.483Z,1.19
2022-07-31T08:52:22.743Z,1.25
2022-07-31T08:53:30.140Z,1.03
2022-07-31T08:54:37.201Z,1.24
2022-07-31T08:55:56.047Z,1.28
2022-07-31T08:56:50.648Z,1.53
2022-07-31T08:57:56.303Z,1.04
2022-07-31T08:59:00.497Z,1.21
2022-07-31T09:00:10.447Z,1.37
2022-07-31T09:01:19.729Z,1.40
2022-07-31T09:02:23.206Z,1.23
2022-07-31T09:03:29.257Z,1.15
2022-07-31T09:04:34.754Z,1.32
2022-07-31T09:05:42.402Z,1.24
2022-07-31T09:06:46.273Z,1.47
2022-07-31T09:07:51.344Z,1.24
2022-07-31T09:08:58.374Z,1.14
2022-07-31T09:10:03.145Z,1.27
2022-07-31T09:11:13.493Z,1.24
2022-07-31T09:12:35.484Z,1.28
2022-07-31T09:13:42.036Z,1.49
2022-07-31T09:14:52.002Z,1.47
2022-07-31T09:16:00.351Z,1.32
2022-07-31T09:17:08.294Z,1.28
2022-07-31T09:18:23.797Z,1.46
2022-07-31T09:19:54.179Z,1.37
2022-07-31T09:21:02.366Z,1.26
2022-07-31T09:22:10.368Z,1.21
2022-07-31T09:23:14.375Z,1.36
2022-07-31T09:24:39.616Z,1.21
2022-07-31T09:25:39.793Z,1.41
2022-07-31T09:26:43.918Z,1.50
2022-07-31T09:27:49.391Z,1.37
2022-07-31T09:29:00.583Z,1.18
2022-07-31T09:30:08.763Z,1.40
2022-07-31T09:31:34.921Z,1.33
2022-07-31T09:32:39.944Z,1.33
2022-07-31T09:33:48.925Z,1.30
2022-07-31T09:35:19.127Z,1.18
2022-07-31T09:36:26.994Z,1.40
2022-07-31T09:37:33.594Z,1.34
2022-07-31T09:39:58.223Z,1.36
2022-07-31T09:41:55.639Z,1.24
2022-07-31T09:42:30.752Z,1.17
2022-07-31T09:43:51.763Z,1.44
2022-07-31T09:44:44.135Z,1.40
2022-07-31T09:46:01.229Z,1.38
2022-07-31T09:47:06.920Z,1.33
2022-07-31T09:48:24.932Z,1.41
2022-07-31T09:49:25.991Z,1.39
2022-07-31T09:50:31.741Z,1.46
2022-07-31T09:51:49.192Z,1.43
2022-07-31T09:53:03.045Z,1.56
2022-07-31T09:54:14.255Z,1.36
2022-07-31T09:55:19.669Z,1.37
2022-07-31T09:56:34.182Z,1.64
2022-07-31T09:57:49.404Z,1.36
2022-07-31T09:58:51.087Z,1.44
2022-07-31T09:59:57.926Z,1.49
2022-07-31T10:01:09.078Z,1.39
2022-07-31T10:02:31.637Z,1.38
2022-07-31T10:03:41.570Z,1.38
2022-07-31T10:04:47.391Z,1.37
2022-07-31T10:05:53.638Z,1.31
2022-07-31T10:06:57.842Z,1.42
2022-07-31T10:08:03.099Z,1.36
2022-07-31T10:09:28.437Z,1.46
2022-07-31T10:10:47.802Z,1.54
2022-07-31T10:12:10.722Z,1.43
2022-07-31T10:13:20.793Z,1.51
2022-07-31T10:14:31.357Z,1.54
2022-07-31T10:15:37.995Z,1.34
2022-07-31T10:17:05.468Z,1.42
2022-07-31T10:18:10.909Z,1.44
2022-07-31T10:19:20.405Z,1.29
2022-07-31T10:20:28.206Z,1.19
2022-07-31T10:21:41.903Z,1.39
2022-07-31T10:22:49.912Z,1.27
2022-07-31T10:23:59.188Z,1.24
2022-07-31T10:25:07.604Z,1.44
2022-07-31T10:26:13.881Z,1.39
2022-07-31T10:27:19.775Z,1.34
2022-07-31T10:28:33.274Z,1.38
2022-07-31T10:29:40.895Z,1.26
2022-07-31T10:30:47.196Z,1.58
2022-07-31T10:31:52.715Z,1.37
2022-07-31T10:33:01.594Z,1.31
2022-07-31T10:34:06.420Z,1.32
2022-07-31T10:35:30.260Z,1.26
2022-07-31T10:36:42.633Z,1.17
2022-07-31T10:38:15.264Z,1.40
2022-07-31T10:39:50.166Z,1.16
2022-07-31T10:41:22.016Z,1.29
2022-07-31T10:42:35.634Z,1.43
2022-07-31T10:43:58.749Z,1.31
2022-07-31T10:45:14.268Z,1.16
2022-07-31T10:46:32.641Z,1.13
2022-07-31T10:47:55.434Z,1.27
2022-07-31T10:49:08.584Z,1.23
2022-07-31T10:50:32.345Z,1.32
2022-07-31T10:51:52.933Z,1.22
2022-07-31T10:53:17.749Z,1.32
2022-07-31T10:54:45.472Z,1.60
2022-07-31T10:56:11.204Z,1.24
2022-07-31T10:59:01.641Z,1.41
2022-07-31T11:00:17.811Z,1.38
2022-07-31T11:01:28.573Z,1.46
2022-07-31T11:02:42.433Z,1.49
2022-07-31T11:04:02.878Z,1.41
2022-07-31T11:05:13.955Z,1.58
2022-07-31T11:08:03.763Z,1.30
2022-07-31T11:10:26.464Z,1.39
2022-07-31T11:11:43.719Z,1.65
2022-07-31T11:13:06.480Z,1.42
2022-07-31T11:14:40.361Z,1.47
2022-07-31T11:15:52.714Z,1.40
2022-07-31T11:17:15.730Z,1.44
2022-07-31T11:18:33.974Z,1.67
2022-07-31T11:19:44.893Z,1.51
2022-07-31T11:21:35.906Z,1.53
2022-07-31T11:22:31.355Z,1.51
2022-07-31T11:23:33.578Z,1.53
2022-07-31T11:24:38.349Z,1.73
2022-07-31T11:25:45.567Z,1.42
2022-07-31T11:26:53.992Z,1.60
2022-07-31T11:28:00.670Z,1.86
2022-07-31T11:30:01.030Z,1.38
2022-07-31T11:30:14.400Z,1.61
2022-07-31T11:31:19.121Z,1.58
2022-07-31T11:32:25.840Z,1.77
2022-07-31T11:34:47.148Z,1.55
2022-07-31T11:35:49.747Z,1.43
2022-07-31T11:36:55.023Z,1.52
2022-07-31T11:38:00.855Z,1.68
2022-07-31T11:39:06.213Z,1.70
2022-07-31T11:40:11.384Z,1.59
2022-07-31T11:41:22.843Z,1.66
2022-07-31T11:42:36.144Z,1.52
2022-07-31T11:43:48.050Z,1.54
2022-07-31T11:44:53.463Z,1.54
2022-07-31T11:45:58.589Z,1.61
2022-07-31T11:47:02.491Z,1.48
2022-07-31T11:48:11.385Z,1.77
2022-07-31T11:49:20.645Z,1.73
2022-07-31T11:50:32.095Z,1.58
2022-07-31T11:51:35.423Z,1.77
2022-07-31T11:52:47.183Z,1.55
2022-07-31T11:53:57.414Z,1.61
2022-07-31T11:55:26.417Z,1.64
2022-07-31T11:56:32.271Z,1.71
2022-07-31T11:57:51.587Z,1.42
2022-07-31T11:58:44.222Z,1.52
2022-07-31T11:59:49.469Z,1.95
2022-07-31T12:01:00.529Z,1.64
2022-07-31T12:03:14.299Z,1.48
2022-07-31T12:04:20.563Z,1.46
2022-07-31T12:05:36.145Z,1.44
2022-07-31T12:06:36.704Z,1.52
2022-07-31T12:07:43.003Z,1.49
2022-07-31T12:08:52.418Z,1.72
2022-07-31T12:10:00.621Z,1.69
2022-07-31T12:11:03.435Z,1.58
2022-07-31T12:12:09.579Z,1.54
2022-07-31T12:13:16.359Z,1.56
2022-07-31T12:14:33.660Z,1.68
2022-07-31T12:15:37.544Z,1.68
2022-07-31T12:16:44.349Z,1.38
2022-07-31T12:17:48.145Z,1.63
2022-07-31T12:19:00.424Z,1.56
2022-07-31T12:20:09.437Z,1.49
2022-07-31T12:21:13.665Z,1.99
2022-07-31T12:22:21.052Z,1.70
2022-07-31T12:23:40.667Z,1.71
2022-07-31T12:24:31.602Z,1.48
2022-07-31T12:25:45.765Z,1.80
2022-07-31T12:26:54.494Z,1.83
2022-07-31T12:27:58.191Z,1.82
2022-07-31T12:29:05.150Z,1.79
2022-07-31T12:30:16.831Z,1.51
2022-07-31T12:31:20.507Z,1.61
2022-07-31T12:32:26.300Z,1.58
2022-07-31T12:33:33.699Z,1.79
2022-07-31T12:34:41.466Z,1.78
2022-07-31T12:35:55.341Z,1.91
2022-07-31T12:36:59.899Z,2.54
2022-07-31T12:38:18.595Z,1.52
2022-07-31T12:39:12.132Z,1.84
2022-07-31T12:41:44.786Z,1.74
2022-07-31T12:42:48.516Z,1.95
2022-07-31T12:43:56.233Z,1.75
2022-07-31T12:45:18.307Z,1.80
2022-07-31T12:46:11.459Z,2.08
2022-07-31T12:47:29.547Z,1.94
2022-07-31T12:48:40.103Z,1.63
2022-07-31T12:49:41.883Z,1.88
2022-07-31T12:50:46.099Z,1.81
2022-07-31T12:51:50.517Z,2.02
2022-07-31T12:52:55.193Z,1.96
2022-07-31T12:53:58.866Z,1.74
2022-07-31T12:55:03.119Z,1.68
2022-07-31T12:56:12.956Z,1.73
2022-07-31T12:57:18.456Z,1.78
2022-07-31T12:58:22.116Z,1.94
2022-07-31T12:59:25.480Z,1.99
2022-07-31T13:00:29.650Z,1.99
2022-07-31T13:01:37.842Z,1.77
2022-07-31T13:02:43.338Z,1.84
2022-07-31T13:03:49.217Z,1.72
2022-07-31T13:04:56.372Z,1.88
2022-07-31T13:06:00.437Z,2.00
2022-07-31T13:07:03.548Z,1.96
2022-07-31T13:08:09.765Z,1.86
2022-07-31T13:09:14.323Z,1.91
2022-07-31T13:10:24.715Z,1.74
2022-07-31T13:11:45.914Z,2.27
2022-07-31T13:12:36.467Z,1.74
2022-07-31T13:13:39.406Z,1.88
2022-07-31T13:14:43.095Z,1.80
2022-07-31T13:15:49.966Z,1.87
2022-07-31T13:16:56.618Z,1.92
2022-07-31T13:18:05.491Z,1.83
2022-07-31T13:19:10.715Z,1.80
2022-07-31T13:20:16.733Z,1.98
2022-07-31T13:21:23.030Z,2.01
2022-07-31T13:22:28.987Z,1.77
2022-07-31T13:23:32.149Z,1.68
2022-07-31T13:24:36.179Z,1.82
2022-07-31T13:25:40.836Z,1.89
2022-07-31T13:26:46.237Z,1.58
2022-07-31T13:27:49.670Z,1.75
2022-07-31T13:28:54.047Z,1.90
2022-07-31T13:29:59.464Z,1.71
2022-07-31T13:31:04.780Z,1.76
2022-07-31T13:32:12.495Z,1.88
2022-07-31T13:33:16.706Z,1.89
2022-07-31T13:34:20.344Z,1.93
2022-07-31T13:35:28.522Z,1.72
2022-07-31T13:36:39.364Z,1.81
2022-07-31T13:37:42.590Z,1.86
2022-07-31T13:38:50.038Z,1.73
2022-07-31T13:39:53.917Z,2.07
2022-07-31T13:41:16.282Z,1.99
2022-07-31T13:42:19.829Z,1.82
2022-07-31T13:43:24.693Z,1.94
2022-07-31T13:44:29.611Z,1.92
2022-07-31T13:45:33.373Z,1.80
2022-07-31T13:46:38.759Z,1.83
2022-07-31T13:47:51.496Z,1.75
2022-07-31T13:48:46.220Z,2.05
2022-07-31T13:49:50.415Z,2.20
2022-07-31T13:50:53.412Z,1.82
2022-07-31T13:52:00.266Z,1.64
2022-07-31T13:53:04.438Z,1.81
2022-07-31T13:54:08.519Z,1.87
2022-07-31T13:55:11.033Z,1.96
2022-07-31T13:56:36.707Z,1.77
2022-07-31T13:57:23.208Z,1.72
2022-07-31T13:58:29.819Z,1.64
2022-07-31T13:59:34.814Z,1.77
2022-07-31T14:00:38.212Z,1.87
2022-07-31T14:02:04.493Z,1.86
2022-07-31T14:02:48.548Z,2.07
2022-07-31T14:03:52.418Z,1.76
2022-07-31T14:04:56.968Z,1.78
2022-07-31T14:06:07.822Z,2.22
2022-07-31T14:08:33.179Z,1.89
2022-07-31T14:09:24.805Z,1.91
2022-07-31T14:10:31.415Z,1.81
2022-07-31T14:11:36.638Z,1.83
2022-07-31T14:12:40.783Z,1.96
2022-07-31T14:13:45.686Z,1.85
2022-07-31T14:14:48.527Z,1.92
2022-07-31T14:15:53.295Z,1.94
2022-07-31T14:41:54.517Z,1.91
2022-07-31T14:43:00.883Z,1.89
2022-07-31T14:44:06.359Z,1.77
2022-07-31T14:45:13.214Z,1.93
2022-07-31T14:46:19.900Z,1.93
2022-07-31T14:47:23.847Z,2.06
2022-07-31T14:48:29.568Z,1.78
2022-07-31T14:50:07.334Z,1.72
2022-07-31T14:50:41.224Z,2.31
2022-07-31T14:51:44.585Z,1.92
2022-07-31T14:52:49.751Z,1.91
2022-07-31T14:55:10.009Z,1.77
2022-07-31T14:56:17.271Z,1.81
2022-07-31T14:57:22.324Z,1.71
2022-07-31T14:58:26.636Z,1.95
2022-07-31T14:59:33.804Z,1.94
2022-07-31T15:00:45.739Z,1.73
2022-07-31T15:01:49.687Z,1.77
2022-07-31T15:02:54.903Z,1.65
2022-07-31T15:03:59.103Z,1.67
2022-07-31T15:06:39.985Z,1.86
2022-07-31T15:06:41.099Z,1.90
2022-07-31T15:07:34.376Z,1.79
2022-07-31T15:08:23.940Z,1.99
2022-07-31T15:09:27.538Z,1.96
2022-07-31T15:10:33.225Z,2.03
2022-07-31T15:11:58.331Z,1.81
2022-07-31T15:12:42.916Z,1.75
2022-07-31T15:13:47.704Z,1.86
2022-07-31T15:14:51.385Z,1.66
2022-07-31T15:15:55.798Z,1.86
2022-07-31T15:17:00.652Z,1.88
2022-07-31T15:18:04.373Z,2.06
2022-07-31T15:19:10.375Z,1.83
2022-07-31T15:20:14.586Z,1.68
2022-07-31T15:21:19.101Z,2.06
2022-07-31T15:22:22.758Z,1.88
2022-07-31T15:23:26.839Z,1.69
2022-07-31T15:24:32.220Z,1.89
2022-07-31T15:25:35.559Z,1.87
2022-07-31T15:26:39.648Z,1.87
2022-07-31T15:27:44.933Z,1.84
2022-07-31T15:28:49.695Z,1.52
2022-07-31T15:30:03.370Z,2.03
2022-07-31T15:31:04.051Z,1.84
2022-07-31T15:32:08.038Z,1.74
2022-07-31T15:33:10.707Z,1.78
2022-07-31T15:34:23.129Z,1.96
2022-07-31T15:35:26.598Z,1.55
2022-07-31T15:36:30.660Z,1.75
2022-07-31T15:37:36.082Z,1.99
2022-07-31T15:38:41.978Z,1.67
2022-07-31T15:39:45.940Z,1.88
2022-07-31T15:40:52.237Z,1.57
2022-07-31T15:41:55.983Z,2.00
2022-07-31T15:42:59.322Z,1.84
2022-07-31T15:44:02.962Z,1.79
2022-07-31T15:45:10.197Z,2.01
2022-07-31T15:46:16.015Z,1.78
2022-07-31T15:47:18.512Z,1.64
2022-07-31T15:48:23.547Z,1.83
2022-07-31T15:49:27.384Z,1.91
2022-07-31T15:50:33.427Z,1.75
2022-07-31T15:51:40.134Z,1.82
2022-07-31T15:52:45.032Z,1.77
2022-07-31T15:53:49.811Z,1.87
2022-07-31T15:54:53.640Z,1.81
2022-07-31T15:55:58.320Z,1.64
2022-07-31T15:57:02.366Z,1.78
2022-07-31T15:58:05.476Z,1.94
2022-07-31T15:59:08.838Z,1.77
2022-07-31T16:00:19.228Z,1.92
2022-07-31T16:01:22.899Z,1.98
2022-07-31T16:02:34.469Z,2.14
2022-07-31T16:03:50.767Z,1.73
2022-07-31T16:04:53.480Z,1.77
2022-07-31T16:05:55.860Z,2.04
2022-07-31T16:08:31.380Z,1.82
2022-07-31T16:08:33.188Z,1.86
2022-07-31T16:09:19.000Z,1.98
2022-07-31T16:10:25.807Z,1.86
2022-07-31T16:12:03.757Z,2.27
2022-07-31T16:12:37.476Z,2.09
2022-07-31T16:13:41.233Z,1.82
2022-07-31T16:16:00.011Z,1.91
2022-07-31T16:17:03.574Z,1.67